Time;durP1;ratioP1;P1;durP2;ratioP2;P2;SDS_P1;SDS_P2;PMS_P1;PMS_P2;Temp;Humidity;BMP_temperature;BMP_pressure;BME280_temperature;BME280_humidity;BME280_pressure;Samples;Min_cycle;Max_cycle;Signal;HPM_P1;HPM_P2
2023/11/08 00:00:38;;;;;;;3.57;1.50;;;7.80;99.90;;;;;;5016141;28;20539;-75
2023/11/08 00:03:07;;;;;;;3.13;1.77;;;7.80;99.90;;;;;;5000683;28;20213;-75
2023/11/08 00:05:33;;;;;;;5.07;1.50;;;7.80;99.90;;;;;;5024456;28;20550;-75
2023/11/08 00:07:59;;;;;;;2.77;1.50;;;7.70;99.90;;;;;;5022722;28;20335;-75
2023/11/08 00:10:27;;;;;;;1.43;1.07;;;7.80;99.90;;;;;;5018203;28;20960;-75
2023/11/08 00:12:52;;;;;;;2.43;1.87;;;7.80;99.90;;;;;;5018893;28;20247;-77
2023/11/08 00:15:18;;;;;;;1.60;0.93;;;7.80;99.90;;;;;;5022888;28;20464;-76
2023/11/08 00:17:44;;;;;;;3.00;1.73;;;7.80;99.90;;;;;;5016339;28;20225;-75
2023/11/08 00:20:11;;;;;;;3.77;1.63;;;7.80;99.90;;;;;;5002853;28;20224;-75
2023/11/08 00:22:39;;;;;;;2.20;1.93;;;7.80;99.90;;;;;;5024324;28;20220;-75
2023/11/08 00:25:05;;;;;;;3.03;1.73;;;7.80;99.90;;;;;;5009574;28;20494;-75
2023/11/08 00:27:31;;;;;;;1.87;1.60;;;7.80;99.90;;;;;;5026559;28;20542;-74
2023/11/08 00:29:57;;;;;;;2.20;1.40;;;7.90;99.90;;;;;;5020199;28;21052;-75
2023/11/08 00:32:23;;;;;;;1.77;1.67;;;7.80;99.90;;;;;;5017823;28;20475;-74
2023/11/08 00:34:49;;;;;;;2.90;1.60;;;7.80;99.90;;;;;;5018555;28;20213;-75
2023/11/08 00:37:14;;;;;;;2.00;1.77;;;7.90;99.90;;;;;;5018201;28;20209;-75
2023/11/08 00:39:41;;;;;;;2.93;1.93;;;7.90;99.90;;;;;;5018394;28;20455;-75
2023/11/08 00:42:06;;;;;;;3.03;1.70;;;8.00;99.90;;;;;;4998770;28;20702;-75
2023/11/08 00:44:32;;;;;;;2.63;1.83;;;8.00;99.90;;;;;;5021361;28;20456;-75
2023/11/08 00:46:59;;;;;;;3.87;1.40;;;8.00;99.90;;;;;;5019978;28;20311;-75
2023/11/08 00:49:24;;;;;;;1.70;1.50;;;7.90;99.90;;;;;;5018710;28;20617;-75
2023/11/08 00:51:50;;;;;;;5.77;1.90;;;7.90;99.90;;;;;;5020606;28;20474;-75
2023/11/08 00:54:17;;;;;;;2.87;1.63;;;7.90;99.90;;;;;;5027063;28;20241;-75
2023/11/08 00:56:42;;;;;;;2.07;1.67;;;7.90;99.90;;;;;;5040328;28;20220;-74
2023/11/08 00:59:08;;;;;;;2.57;1.70;;;7.90;99.90;;;;;;5039097;28;20470;-75
2023/11/08 01:01:35;;;;;;;2.97;1.70;;;7.90;99.90;;;;;;5009035;28;20315;-75
2023/11/08 01:04:03;;;;;;;5.60;1.87;;;7.90;99.90;;;;;;5027312;28;20213;-75
2023/11/08 01:06:29;;;;;;;5.63;2.27;;;7.90;99.90;;;;;;5004308;28;20455;-74
2023/11/08 01:08:55;;;;;;;3.00;1.70;;;7.90;99.90;;;;;;5005873;28;20552;-75
2023/11/08 01:11:21;;;;;;;7.90;1.77;;;7.90;99.90;;;;;;5020419;28;20542;-75
2023/11/08 01:13:47;;;;;;;3.83;1.93;;;7.90;99.90;;;;;;5022822;28;20228;-75
2023/11/08 01:16:15;;;;;;;2.17;1.60;;;7.90;99.90;;;;;;5017881;28;20492;-75
2023/11/08 01:18:41;;;;;;;3.83;2.10;;;7.90;99.90;;;;;;5020738;28;20491;-74
2023/11/08 01:21:07;;;;;;;2.00;1.70;;;7.80;99.90;;;;;;5020953;28;20498;-73
2023/11/08 01:23:33;;;;;;;2.00;1.80;;;7.90;99.90;;;;;;5014937;28;20244;-75
2023/11/08 01:25:58;;;;;;;1.80;1.70;;;8.00;99.90;;;;;;5023953;28;20220;-75
2023/11/08 01:28:24;;;;;;;2.30;1.67;;;8.00;99.90;;;;;;5018977;28;20471;-75
2023/11/08 01:30:50;;;;;;;9.30;2.30;;;8.00;99.90;;;;;;5030726;28;20235;-75
2023/11/08 01:33:16;;;;;;;5.97;2.40;;;7.90;99.90;;;;;;5030448;28;20232;-74
2023/11/08 01:35:43;;;;;;;2.40;2.20;;;7.90;99.90;;;;;;5037851;28;20255;-74
2023/11/08 01:38:09;;;;;;;2.20;2.00;;;7.90;99.90;;;;;;5003818;28;20448;-74
2023/11/08 01:40:35;;;;;;;2.73;1.87;;;7.90;99.90;;;;;;5008759;28;21074;-75
2023/11/08 01:43:01;;;;;;;2.70;2.00;;;7.90;99.90;;;;;;5017294;28;20348;-75
2023/11/08 01:45:27;;;;;;;3.90;2.00;;;7.90;99.90;;;;;;5006480;28;20446;-75
2023/11/08 01:47:53;;;;;;;6.77;2.90;;;7.90;99.90;;;;;;5036165;28;20687;-75
2023/11/08 01:50:19;;;;;;;9.03;1.97;;;7.80;99.90;;;;;;5030033;28;20217;-75
2023/11/08 01:52:45;;;;;;;3.83;2.20;;;7.80;99.90;;;;;;5030332;28;20475;-75
2023/11/08 01:55:11;;;;;;;4.63;1.87;;;7.80;99.90;;;;;;5035997;28;20529;-74
2023/11/08 01:57:36;;;;;;;4.53;2.30;;;7.90;99.90;;;;;;5005714;28;20708;-74
2023/11/08 02:00:05;;;;;;;1.77;1.63;;;7.80;99.90;;;;;;5007174;28;20205;-75
2023/11/08 02:02:39;;;;;;;8.70;2.03;;;7.80;99.90;;;;;;5024667;28;20212;-75
2023/11/08 02:05:06;;;;;;;4.40;2.40;;;7.80;99.90;;;;;;5032462;28;20455;-75
2023/11/08 02:07:32;;;;;;;4.30;2.17;;;7.70;99.90;;;;;;5033739;28;20458;-74
2023/11/08 02:09:58;;;;;;;2.20;2.00;;;7.70;99.90;;;;;;5009164;28;20444;-75
2023/11/08 02:12:23;;;;;;;3.53;2.33;;;7.80;99.90;;;;;;5023414;28;20302;-74
2023/11/08 02:15:05;;;;;;;3.00;1.83;;;7.80;99.90;;;;;;5007153;28;20463;-74
2023/11/08 02:17:31;;;;;;;10.87;2.43;;;7.70;99.90;;;;;;5004271;28;20209;-75
2023/11/08 02:19:57;;;;;;;4.10;2.00;;;7.60;99.90;;;;;;5020749;28;20459;-75
2023/11/08 02:22:23;;;;;;;7.57;2.27;;;7.70;99.90;;;;;;5021922;28;20476;-74
2023/11/08 02:24:50;;;;;;;2.80;1.40;;;7.60;99.90;;;;;;5017004;28;20217;-74
2023/11/08 02:27:16;;;;;;;2.67;2.10;;;7.60;99.90;;;;;;5013690;28;20483;-74
2023/11/08 02:29:41;;;;;;;8.93;1.70;;;7.60;99.90;;;;;;5026276;28;20989;-74
2023/11/08 02:32:09;;;;;;;1.70;1.57;;;7.60;99.90;;;;;;5037390;28;20281;-75
2023/11/08 02:34:35;;;;;;;1.97;1.83;;;7.60;99.90;;;;;;5007234;28;20349;-74
2023/11/08 02:37:01;;;;;;;9.10;2.67;;;7.50;99.90;;;;;;5013691;28;20988;-74
2023/11/08 02:39:26;;;;;;;4.00;1.80;;;7.50;99.90;;;;;;4993324;28;20458;-75
2023/11/08 02:41:52;;;;;;;3.47;1.90;;;7.50;99.90;;;;;;5027342;28;20224;-75
2023/11/08 02:44:18;;;;;;;2.13;1.93;;;7.50;99.90;;;;;;5034521;28;20210;-74
2023/11/08 02:46:44;;;;;;;3.77;1.73;;;7.50;99.90;;;;;;5002470;28;20218;-74
2023/11/08 02:49:11;;;;;;;1.70;1.60;;;7.50;99.90;;;;;;5031145;28;20831;-75
2023/11/08 02:51:36;;;;;;;4.17;1.97;;;7.40;99.90;;;;;;4998369;28;20734;-74
2023/11/08 02:54:02;;;;;;;2.50;1.87;;;7.40;99.90;;;;;;5002969;28;20565;-75
2023/11/08 02:56:28;;;;;;;3.60;2.30;;;7.40;99.90;;;;;;4998480;28;20233;-75
2023/11/08 02:58:56;;;;;;;2.30;2.10;;;7.40;99.90;;;;;;5010490;28;20714;-75
2023/11/08 03:01:22;;;;;;;2.33;1.80;;;7.40;99.90;;;;;;5002355;28;20224;-74
2023/11/08 03:03:49;;;;;;;3.10;2.33;;;7.40;99.90;;;;;;5011287;28;20452;-75
2023/11/08 03:06:15;;;;;;;1.90;1.80;;;7.40;99.90;;;;;;4991061;28;20455;-75
2023/11/08 03:08:41;;;;;;;5.93;2.63;;;7.40;99.90;;;;;;5035366;28;20450;-75
2023/11/08 03:11:06;;;;;;;3.80;2.30;;;7.40;99.90;;;;;;5024535;28;20244;-75
2023/11/08 03:13:32;;;;;;;1.90;1.70;;;7.40;99.90;;;;;;5020078;28;20229;-74
2023/11/08 03:15:58;;;;;;;1.60;1.50;;;7.50;99.90;;;;;;5002502;28;20267;-74
2023/11/08 03:18:25;;;;;;;3.27;1.40;;;7.50;99.90;;;;;;5001885;28;20258;-75
2023/11/08 03:20:51;;;;;;;2.70;1.80;;;7.40;99.90;;;;;;5022212;28;20555;-74
2023/11/08 03:23:17;;;;;;;2.30;1.80;;;7.40;99.90;;;;;;4995865;28;20540;-75
2023/11/08 03:25:42;;;;;;;1.77;1.50;;;7.40;99.90;;;;;;5024738;28;20452;-74
2023/11/08 03:28:09;;;;;;;3.00;1.57;;;7.40;99.90;;;;;;5020991;28;20229;-75
2023/11/08 03:30:36;;;;;;;2.27;1.87;;;7.40;99.90;;;;;;5028933;28;20226;-74
2023/11/08 03:33:02;;;;;;;2.20;1.47;;;7.40;99.90;;;;;;5019674;28;20467;-75
2023/11/08 03:35:28;;;;;;;4.07;1.80;;;7.40;99.90;;;;;;5021540;28;20513;-73
2023/11/08 03:37:55;;;;;;;4.00;2.60;;;7.40;99.90;;;;;;5016595;28;20465;-75
2023/11/08 03:40:20;;;;;;;2.10;1.80;;;7.40;99.90;;;;;;5017833;28;20308;-74
2023/11/08 03:42:46;;;;;;;1.83;1.53;;;7.50;99.90;;;;;;5023272;28;20550;-75
2023/11/08 03:45:12;;;;;;;2.20;2.10;;;7.50;99.90;;;;;;5020507;28;20278;-75
2023/11/08 03:47:39;;;;;;;2.67;1.70;;;7.50;99.90;;;;;;5004662;28;20301;-74
2023/11/08 03:50:05;;;;;;;6.73;1.90;;;7.40;99.90;;;;;;5012268;28;20456;-74
2023/11/08 03:52:31;;;;;;;2.47;2.07;;;7.50;99.90;;;;;;5016108;28;20486;-74
2023/11/08 03:55:00;;;;;;;1.90;1.43;;;7.40;99.90;;;;;;5017732;28;20460;-74
2023/11/08 03:57:27;;;;;;;2.60;2.20;;;7.40;99.90;;;;;;5010362;28;20818;-74
2023/11/08 03:59:54;;;;;;;2.23;2.03;;;7.40;99.90;;;;;;5019924;28;20542;-75
2023/11/08 04:02:22;;;;;;;2.03;1.80;;;7.40;99.90;;;;;;4997094;28;20442;-74
2023/11/08 04:04:49;;;;;;;3.13;2.27;;;7.50;99.90;;;;;;4993246;28;20456;-75
2023/11/08 04:07:15;;;;;;;3.13;1.93;;;7.40;99.90;;;;;;5017760;28;20458;-74
2023/11/08 04:09:41;;;;;;;3.60;2.23;;;7.40;99.90;;;;;;5019984;28;20483;-74
2023/11/08 04:12:09;;;;;;;4.47;2.63;;;7.40;99.90;;;;;;5013686;28;20517;-74
2023/11/08 04:14:35;;;;;;;3.73;1.83;;;7.40;99.90;;;;;;5018887;28;20445;-74
2023/11/08 04:17:00;;;;;;;7.13;2.80;;;7.40;99.90;;;;;;5011372;28;20553;-74
2023/11/08 04:19:26;;;;;;;3.90;2.80;;;7.30;99.90;;;;;;4995239;28;20306;-75
2023/11/08 04:21:52;;;;;;;6.53;2.40;;;7.40;99.90;;;;;;5028568;28;20214;-75
2023/11/08 04:24:18;;;;;;;3.30;2.20;;;7.40;99.90;;;;;;5020076;28;20865;-74
2023/11/08 04:26:44;;;;;;;3.53;2.40;;;7.40;99.90;;;;;;5022463;28;20217;-74
2023/11/08 04:29:10;;;;;;;5.67;3.37;;;7.40;99.90;;;;;;5021130;28;20683;-75
2023/11/08 04:31:35;;;;;;;2.43;2.10;;;7.40;99.90;;;;;;5013642;28;20209;-75
2023/11/08 04:34:01;;;;;;;4.00;2.30;;;7.40;99.90;;;;;;5009468;28;20263;-74
2023/11/08 04:36:27;;;;;;;4.00;2.43;;;7.40;99.90;;;;;;5017967;28;20248;-74
2023/11/08 04:38:53;;;;;;;3.87;2.63;;;7.40;99.90;;;;;;5006208;28;20229;-74
2023/11/08 04:41:20;;;;;;;3.70;2.77;;;7.40;99.90;;;;;;5002440;28;20218;-74
2023/11/08 04:43:47;;;;;;;4.13;2.70;;;7.40;99.90;;;;;;5028415;28;20463;-74
2023/11/08 04:46:14;;;;;;;4.27;2.90;;;7.50;99.90;;;;;;5018302;28;20900;-74
2023/11/08 04:48:40;;;;;;;5.67;2.57;;;7.50;99.90;;;;;;5007366;28;20521;-75
2023/11/08 04:51:06;;;;;;;2.80;2.30;;;7.40;99.90;;;;;;5000232;28;20459;-75
2023/11/08 04:53:32;;;;;;;4.20;2.50;;;7.40;99.90;;;;;;5009963;28;20472;-75
2023/11/08 04:55:57;;;;;;;4.53;2.97;;;7.50;99.90;;;;;;5026658;28;20451;-74
2023/11/08 04:58:24;;;;;;;3.73;2.63;;;7.40;99.90;;;;;;5022148;28;20738;-74
2023/11/08 05:00:49;;;;;;;5.50;2.40;;;7.40;99.90;;;;;;5025289;28;20229;-75
2023/11/08 05:03:15;;;;;;;3.40;2.50;;;7.30;99.90;;;;;;5023696;28;20220;-74
2023/11/08 05:05:41;;;;;;;2.70;2.20;;;7.30;99.90;;;;;;5012888;28;20214;-74
2023/11/08 05:08:07;;;;;;;6.13;2.60;;;7.40;99.90;;;;;;5002354;28;20237;-75
2023/11/08 05:10:32;;;;;;;3.40;2.27;;;7.40;99.90;;;;;;4991502;28;20296;-75
2023/11/08 05:13:02;;;;;;;5.80;3.00;;;7.40;99.90;;;;;;5013018;28;20234;-74
2023/11/08 05:15:30;;;;;;;4.37;2.47;;;7.30;99.90;;;;;;4999039;28;20300;-74
2023/11/08 05:17:57;;;;;;;4.67;2.97;;;7.30;99.90;;;;;;5017584;28;20455;-75
2023/11/08 05:20:25;;;;;;;5.70;3.17;;;7.30;99.90;;;;;;5017180;28;20983;-75
2023/11/08 05:22:51;;;;;;;3.80;2.80;;;7.30;99.90;;;;;;4997503;28;20464;-74
2023/11/08 05:25:16;;;;;;;3.70;3.33;;;7.30;99.90;;;;;;5000630;28;20444;-74
2023/11/08 05:27:43;;;;;;;5.43;3.33;;;7.30;99.90;;;;;;5021299;28;20481;-75
2023/11/08 05:30:09;;;;;;;6.00;3.27;;;7.30;99.90;;;;;;5007373;28;20277;-75
2023/11/08 05:32:40;;;;;;;5.63;3.33;;;7.30;99.90;;;;;;5013880;28;20495;-75
2023/11/08 05:35:07;;;;;;;4.33;2.50;;;7.30;99.90;;;;;;5026864;28;20460;-75
2023/11/08 05:37:33;;;;;;;6.00;2.93;;;7.30;99.90;;;;;;4995172;28;20459;-75
2023/11/08 05:39:59;;;;;;;4.70;3.00;;;7.30;99.90;;;;;;5024977;28;20456;-74
2023/11/08 05:42:26;;;;;;;3.50;3.20;;;7.30;99.90;;;;;;5005200;28;20463;-74
2023/11/08 05:44:57;;;;;;;9.90;3.40;;;7.30;99.90;;;;;;5004325;28;20226;-74
2023/11/08 05:47:22;;;;;;;6.37;2.70;;;7.30;99.90;;;;;;5001319;28;20487;-74
2023/11/08 05:49:49;;;;;;;4.93;2.97;;;7.40;99.90;;;;;;5012749;28;20493;-74
2023/11/08 05:52:16;;;;;;;4.17;3.50;;;7.40;99.90;;;;;;5021517;28;20292;-74
2023/11/08 05:54:42;;;;;;;4.73;3.47;;;7.40;99.90;;;;;;5017168;28;20460;-74
2023/11/08 05:57:07;;;;;;;3.80;2.80;;;7.40;99.90;;;;;;5022327;28;20837;-74
2023/11/08 05:59:33;;;;;;;3.93;2.90;;;7.40;99.90;;;;;;5015735;28;20300;-74
2023/11/08 06:02:00;;;;;;;3.40;2.73;;;7.40;99.90;;;;;;5021942;28;20257;-74
2023/11/08 06:04:26;;;;;;;5.70;3.00;;;7.40;99.90;;;;;;5019549;28;20703;-75
2023/11/08 06:06:52;;;;;;;3.70;3.07;;;7.40;99.90;;;;;;5021406;28;20464;-74
2023/11/08 06:09:18;;;;;;;4.90;3.40;;;7.40;99.90;;;;;;5005940;28;20240;-75
2023/11/08 06:11:44;;;;;;;4.07;2.90;;;7.30;99.90;;;;;;5006990;28;20228;-74
2023/11/08 06:14:10;;;;;;;4.90;2.87;;;7.40;99.90;;;;;;5016431;28;20511;-74
2023/11/08 06:16:36;;;;;;;5.10;2.87;;;7.40;99.90;;;;;;4988919;28;20971;-74
2023/11/08 06:19:02;;;;;;;4.20;3.30;;;7.40;99.90;;;;;;4993510;28;20716;-74
2023/11/08 06:21:28;;;;;;;6.07;3.30;;;7.40;99.90;;;;;;4998530;28;20516;-74
2023/11/08 06:23:54;;;;;;;4.77;3.43;;;7.50;99.90;;;;;;4998907;28;20296;-74
2023/11/08 06:26:19;;;;;;;4.00;2.53;;;7.50;99.90;;;;;;4979422;28;20211;-74
2023/11/08 06:28:46;;;;;;;3.77;3.20;;;7.50;99.90;;;;;;5002040;28;20236;-74
2023/11/08 06:31:12;;;;;;;3.30;2.77;;;7.50;99.90;;;;;;5016032;28;20256;-74
2023/11/08 06:33:38;;;;;;;6.03;2.97;;;7.50;99.90;;;;;;5000721;28;21179;-75
2023/11/08 06:36:04;;;;;;;5.27;3.07;;;7.50;99.90;;;;;;4997688;28;20464;-74
2023/11/08 06:38:30;;;;;;;3.93;2.57;;;7.60;99.90;;;;;;5002951;28;20475;-74
2023/11/08 06:40:56;;;;;;;3.40;2.63;;;7.60;99.90;;;;;;5001866;28;20457;-75
2023/11/08 06:43:22;;;;;;;5.50;2.60;;;7.60;99.90;;;;;;5016285;28;20252;-75
2023/11/08 06:45:49;;;;;;;4.60;2.70;;;7.60;99.90;;;;;;5022727;28;20355;-74
2023/11/08 06:48:15;;;;;;;3.27;2.60;;;7.60;99.90;;;;;;5014048;28;20465;-74
2023/11/08 06:50:43;;;;;;;5.00;2.70;;;7.70;99.90;;;;;;5017154;28;20930;-74
2023/11/08 06:53:10;;;;;;;3.60;2.17;;;7.70;99.90;;;;;;5012700;28;20476;-74
2023/11/08 06:55:35;;;;;;;2.73;2.47;;;7.70;99.90;;;;;;5011582;28;20951;-74
2023/11/08 06:58:01;;;;;;;3.30;1.80;;;7.60;99.90;;;;;;5014758;28;20550;-75
2023/11/08 07:00:27;;;;;;;2.47;2.27;;;7.70;99.90;;;;;;5013560;28;20220;-75
2023/11/08 07:02:53;;;;;;;2.77;2.23;;;7.70;99.90;;;;;;5020031;28;20262;-75
2023/11/08 07:05:19;;;;;;;3.33;2.57;;;7.70;99.90;;;;;;5005892;28;20876;-74
2023/11/08 07:07:46;;;;;;;3.77;2.57;;;7.70;99.90;;;;;;5026972;28;20212;-75
2023/11/08 07:10:13;;;;;;;2.83;2.43;;;7.70;99.90;;;;;;5022078;28;21000;-75
2023/11/08 07:12:40;;;;;;;3.87;2.57;;;7.80;99.90;;;;;;5023150;28;20502;-74
2023/11/08 07:15:07;;;;;;;4.93;2.93;;;7.80;99.90;;;;;;5022119;28;20460;-74
2023/11/08 07:17:36;;;;;;;5.83;2.97;;;7.90;99.90;;;;;;5022297;28;20444;-74
2023/11/08 07:20:05;;;;;;;4.20;2.80;;;7.80;99.90;;;;;;5008237;28;20460;-75
2023/11/08 07:22:30;;;;;;;8.10;3.10;;;7.80;99.90;;;;;;4989848;28;20946;-75
2023/11/08 07:24:56;;;;;;;5.40;3.30;;;7.80;99.90;;;;;;5004917;28;20452;-75
2023/11/08 07:27:21;;;;;;;3.90;2.63;;;7.90;99.90;;;;;;5021261;28;20229;-74
2023/11/08 07:29:47;;;;;;;5.23;3.00;;;7.90;99.90;;;;;;5022563;28;20231;-74
2023/11/08 07:32:14;;;;;;;5.87;2.70;;;7.90;99.90;;;;;;5024403;28;20313;-75
2023/11/08 07:34:43;;;;;;;4.00;2.70;;;7.90;99.90;;;;;;5025905;28;20229;-75
2023/11/08 07:37:13;;;;;;;5.23;2.40;;;8.00;99.90;;;;;;5023010;28;20566;-75
2023/11/08 07:39:39;;;;;;;3.00;2.70;;;8.00;99.90;;;;;;5020802;28;20479;-74
2023/11/08 07:42:05;;;;;;;3.63;2.37;;;8.00;99.90;;;;;;5023862;28;20465;-75
2023/11/08 07:44:31;;;;;;;3.83;3.07;;;8.10;99.90;;;;;;5018233;28;20479;-75
2023/11/08 07:46:57;;;;;;;5.47;2.20;;;8.10;99.90;;;;;;5022439;28;20221;-75
2023/11/08 07:49:23;;;;;;;2.63;2.43;;;8.10;99.90;;;;;;5020141;28;20324;-75
2023/11/08 07:51:51;;;;;;;6.00;3.07;;;8.10;99.90;;;;;;5020533;28;20468;-74
2023/11/08 07:54:17;;;;;;;6.00;2.30;;;8.20;99.90;;;;;;5015720;28;20469;-75
2023/11/08 07:56:43;;;;;;;2.90;2.60;;;8.20;99.90;;;;;;5012011;28;20471;-75
2023/11/08 07:59:09;;;;;;;4.30;2.10;;;8.10;99.90;;;;;;5028886;28;20530;-74
2023/11/08 08:01:35;;;;;;;4.47;2.40;;;8.20;99.90;;;;;;5020993;28;20228;-76
2023/11/08 08:04:00;;;;;;;3.93;2.60;;;8.20;99.90;;;;;;5026212;28;20456;-74
2023/11/08 08:06:26;;;;;;;5.63;2.70;;;8.20;99.90;;;;;;5022165;28;20225;-75
2023/11/08 08:08:52;;;;;;;2.07;1.90;;;8.20;99.90;;;;;;5023335;28;20231;-75
2023/11/08 08:11:17;;;;;;;2.57;2.07;;;8.20;99.90;;;;;;5020759;28;20210;-75
2023/11/08 08:13:45;;;;;;;2.50;2.20;;;8.20;99.90;;;;;;5023742;28;20228;-75
2023/11/08 08:16:12;;;;;;;3.60;1.70;;;8.20;99.90;;;;;;5022663;28;20224;-75
2023/11/08 08:18:37;;;;;;;6.60;2.03;;;8.20;99.90;;;;;;5025035;28;20459;-73
2023/11/08 08:21:03;;;;;;;5.27;2.10;;;8.20;99.90;;;;;;5003630;28;20473;-75
2023/11/08 08:23:29;;;;;;;2.20;1.90;;;8.20;99.90;;;;;;5022266;28;20221;-75
2023/11/08 08:25:55;;;;;;;2.07;1.70;;;8.20;99.90;;;;;;5027455;28;21092;-75
2023/11/08 08:28:21;;;;;;;1.90;1.50;;;8.30;99.90;;;;;;5005733;28;20256;-75
2023/11/08 08:30:46;;;;;;;2.13;2.00;;;8.40;99.90;;;;;;5023255;28;20236;-75
2023/11/08 08:33:12;;;;;;;3.87;1.93;;;8.40;99.90;;;;;;5020880;28;20484;-75
2023/11/08 08:35:39;;;;;;;3.83;2.07;;;8.40;99.90;;;;;;5025350;28;20259;-75
2023/11/08 08:38:04;;;;;;;1.70;1.60;;;8.40;99.90;;;;;;5020192;28;20221;-74
2023/11/08 08:40:31;;;;;;;3.00;1.47;;;8.40;99.90;;;;;;5023468;28;20451;-75
2023/11/08 08:42:57;;;;;;;1.77;1.67;;;8.40;99.90;;;;;;5007290;28;20221;-74
2023/11/08 08:45:23;;;;;;;3.80;1.40;;;8.50;99.90;;;;;;5021960;28;20553;-75
2023/11/08 08:47:53;;;;;;;2.23;1.30;;;8.70;99.90;;;;;;5021258;28;20259;-75
2023/11/08 08:50:19;;;;;;;3.43;1.40;;;8.70;99.90;;;;;;5021743;28;20456;-74
2023/11/08 08:52:45;;;;;;;2.53;1.40;;;8.70;99.90;;;;;;5022924;28;21018;-75
2023/11/08 08:55:13;;;;;;;2.90;1.30;;;9.00;99.90;;;;;;5020028;28;20209;-75
2023/11/08 08:57:43;;;;;;;1.93;1.50;;;9.20;99.90;;;;;;5020416;28;20445;-74
2023/11/08 09:00:09;;;;;;;2.53;2.30;;;9.30;99.90;;;;;;5024997;28;20514;-74
2023/11/08 09:02:35;;;;;;;1.43;1.10;;;9.30;99.90;;;;;;5026793;28;20451;-75
2023/11/08 09:05:02;;;;;;;2.70;1.30;;;9.30;99.90;;;;;;5024214;28;20460;-74
2023/11/08 09:07:28;;;;;;;1.40;1.30;;;9.20;99.90;;;;;;5010262;28;20285;-75
2023/11/08 09:09:53;;;;;;;1.77;1.13;;;9.20;99.90;;;;;;5026642;28;20542;-75
2023/11/08 09:12:19;;;;;;;1.53;1.30;;;9.20;99.90;;;;;;5028594;28;20217;-74
2023/11/08 09:14:52;;;;;;;1.87;1.10;;;9.20;99.90;;;;;;5026346;28;20275;-75
2023/11/08 09:17:21;;;;;;;2.70;1.40;;;9.20;99.90;;;;;;5018417;28;20218;-75
2023/11/08 09:19:47;;;;;;;2.70;1.37;;;9.20;99.90;;;;;;5009657;28;20468;-75
2023/11/08 09:22:13;;;;;;;1.60;1.50;;;9.20;99.90;;;;;;5024018;28;20452;-74
2023/11/08 09:24:39;;;;;;;1.90;1.43;;;9.20;99.90;;;;;;5027933;28;20530;-75
2023/11/08 09:27:07;;;;;;;2.17;1.87;;;9.20;99.90;;;;;;5025826;28;20220;-75
2023/11/08 09:29:33;;;;;;;1.90;1.60;;;9.10;99.90;;;;;;5026930;28;20239;-74
2023/11/08 09:31:59;;;;;;;1.40;1.30;;;9.20;99.90;;;;;;5029045;28;20460;-75
2023/11/08 09:34:25;;;;;;;4.00;1.60;;;9.20;99.90;;;;;;5028530;28;20253;-75
2023/11/08 09:36:51;;;;;;;3.70;1.77;;;9.20;99.90;;;;;;5022434;28;20468;-74
2023/11/08 09:39:17;;;;;;;1.73;1.30;;;9.20;99.90;;;;;;5027580;28;20212;-75
2023/11/08 09:41:43;;;;;;;3.10;1.50;;;9.20;99.90;;;;;;5026183;28;20283;-74
2023/11/08 09:44:11;;;;;;;5.10;1.73;;;9.20;99.90;;;;;;5026295;28;20213;-75
2023/11/08 09:46:37;;;;;;;1.87;1.03;;;9.20;99.90;;;;;;5027021;28;20836;-75
2023/11/08 09:49:03;;;;;;;3.57;1.23;;;9.30;99.90;;;;;;5027213;28;20495;-75
2023/11/08 09:51:30;;;;;;;1.43;1.30;;;9.30;99.90;;;;;;5023550;28;20475;-75
2023/11/08 09:53:56;;;;;;;4.37;1.87;;;9.40;99.90;;;;;;5026919;28;20267;-75
2023/11/08 09:56:23;;;;;;;1.00;1.00;;;9.40;99.90;;;;;;5013995;28;20471;-75
2023/11/08 09:58:50;;;;;;;1.57;1.27;;;9.40;99.90;;;;;;5026387;28;20507;-75
2023/11/08 10:01:17;;;;;;;2.60;1.90;;;9.40;99.90;;;;;;5027371;28;20969;-75
2023/11/08 10:03:44;;;;;;;5.37;1.60;;;9.50;99.90;;;;;;5023872;28;20499;-75
2023/11/08 10:06:11;;;;;;;1.33;1.17;;;9.60;99.90;;;;;;5022447;28;20813;-74
2023/11/08 10:08:37;;;;;;;3.53;1.57;;;9.70;99.90;;;;;;5020078;28;20478;-75
2023/11/08 10:11:06;;;;;;;3.90;1.53;;;9.70;99.90;;;;;;5008679;28;20460;-75
2023/11/08 10:13:49;;;;;;;2.77;1.47;;;9.70;99.90;;;;;;5011990;28;20456;-75
2023/11/08 10:16:16;;;;;;;3.57;1.63;;;9.70;99.90;;;;;;5012864;28;20460;-75
2023/11/08 10:18:42;;;;;;;1.73;1.47;;;9.90;99.90;;;;;;5000875;28;20476;-75
2023/11/08 10:21:18;;;;;;;1.93;1.53;;;10.10;99.90;;;;;;5015318;28;20449;-75
2023/11/08 10:23:44;;;;;;;5.00;1.67;;;10.30;99.90;;;;;;4998871;28;20543;-75
2023/11/08 10:26:31;;;;;;;4.80;1.40;;;10.50;99.90;;;;;;5008389;28;20595;-75
2023/11/08 10:29:03;;;;;;;2.50;1.43;;;10.50;99.90;;;;;;4999262;28;20211;-75
2023/11/08 10:31:33;;;;;;;6.30;1.83;;;10.50;99.90;;;;;;5000589;28;20457;-75
2023/11/08 10:34:01;;;;;;;2.07;1.60;;;10.60;99.90;;;;;;4998853;28;20461;-75
2023/11/08 10:36:28;;;;;;;1.50;1.40;;;10.60;99.90;;;;;;5018711;28;20505;-75
2023/11/08 10:38:55;;;;;;;2.60;1.20;;;10.60;99.90;;;;;;5003419;28;20548;-76
2023/11/08 10:41:21;;;;;;;1.27;1.17;;;10.70;99.90;;;;;;5020757;28;20457;-75
2023/11/08 10:43:47;;;;;;;2.43;1.53;;;10.60;99.90;;;;;;5011470;28;20449;-75
2023/11/08 10:46:13;;;;;;;8.40;1.93;;;10.70;99.90;;;;;;4995307;28;20230;-76
2023/11/08 10:48:38;;;;;;;1.90;1.47;;;10.70;99.90;;;;;;5002934;28;20606;-75
2023/11/08 10:51:05;;;;;;;3.13;1.50;;;10.70;99.90;;;;;;4992331;28;20210;-75
2023/11/08 10:53:32;;;;;;;2.40;1.43;;;10.70;99.90;;;;;;5005041;28;20222;-75
2023/11/08 10:56:01;;;;;;;1.87;1.17;;;10.70;99.90;;;;;;5008224;28;20464;-75
2023/11/08 10:58:35;;;;;;;1.17;1.10;;;10.70;99.90;;;;;;5035935;28;20459;-75
2023/11/08 11:01:06;;;;;;;2.77;1.23;;;10.60;99.90;;;;;;5020944;28;20506;-75
2023/11/08 11:03:32;;;;;;;1.87;1.10;;;10.60;99.90;;;;;;5020529;28;20457;-75
2023/11/08 11:06:01;;;;;;;1.30;1.20;;;10.50;99.90;;;;;;5015749;28;20484;-75
2023/11/08 11:08:30;;;;;;;5.83;1.73;;;10.60;99.90;;;;;;5012491;28;20457;-75
2023/11/08 11:10:56;;;;;;;3.70;1.17;;;10.60;99.90;;;;;;5003159;28;20449;-75
2023/11/08 11:13:34;;;;;;;3.40;1.90;;;10.70;99.90;;;;;;5015087;28;20832;-75
2023/11/08 11:16:19;;;;;;;3.47;1.60;;;10.70;99.90;;;;;;5001685;28;20218;-76
2023/11/08 11:18:49;;;;;;;6.73;1.30;;;10.70;99.90;;;;;;5013950;28;20540;-75
2023/11/08 11:21:23;;;;;;;2.00;1.50;;;10.70;99.90;;;;;;5005636;28;20464;-75
2023/11/08 11:23:49;;;;;;;1.03;1.03;;;10.70;99.90;;;;;;5000463;28;20453;-75
2023/11/08 11:26:45;;;;;;;2.83;1.30;;;10.70;99.90;;;;;;4989073;28;20442;-75
2023/11/08 11:29:18;;;;;;;1.07;1.07;;;10.80;99.90;;;;;;5021123;28;20214;-75
2023/11/08 11:31:44;;;;;;;1.37;1.27;;;10.80;99.90;;;;;;5008714;28;20453;-75
2023/11/08 11:34:24;;;;;;;;;;;;;;;;;;;;;
2023/11/08 11:37:03;;;;;;;1.80;1.37;;;10.70;99.90;;;;;;5021428;28;20452;-75
2023/11/08 11:39:33;;;;;;;3.40;1.30;;;10.70;99.90;;;;;;5026538;28;20461;-75
2023/11/08 11:42:00;;;;;;;1.20;1.10;;;10.70;99.90;;;;;;5027479;28;20459;-75
2023/11/08 11:44:45;;;;;;;2.23;1.53;;;10.70;99.90;;;;;;5029091;28;20510;-75
2023/11/08 11:47:14;;;;;;;1.47;1.13;;;10.60;99.90;;;;;;5008321;28;20532;-75
2023/11/08 11:49:46;;;;;;;2.03;1.30;;;10.60;99.90;;;;;;5013600;28;20882;-75
2023/11/08 11:52:14;;;;;;;1.30;1.20;;;10.60;99.90;;;;;;5020099;28;20559;-75
2023/11/08 11:54:50;;;;;;;1.70;1.60;;;10.60;99.90;;;;;;5023192;28;20542;-76
2023/11/08 11:57:20;;;;;;;1.60;1.50;;;10.60;99.90;;;;;;5020064;28;20518;-74
2023/11/08 12:00:00;;;;;;;1.43;1.33;;;10.60;99.90;;;;;;5028519;28;20466;-75
2023/11/08 12:02:28;;;;;;;1.00;0.97;;;10.60;99.90;;;;;;5029686;28;20470;-75
2023/11/08 12:04:56;;;;;;;2.40;2.20;;;10.60;99.90;;;;;;5015240;28;20512;-75
2023/11/08 12:07:22;;;;;;;2.40;1.30;;;10.60;99.90;;;;;;5025596;28;20537;-75
2023/11/08 12:09:48;;;;;;;3.03;1.70;;;10.50;99.90;;;;;;5020161;28;20471;-75
2023/11/08 12:12:28;;;;;;;2.10;1.70;;;10.50;99.90;;;;;;5018048;28;20229;-76
2023/11/08 12:14:55;;;;;;;3.33;2.40;;;10.50;99.90;;;;;;4996307;28;20476;-75
2023/11/08 12:17:23;;;;;;;1.20;1.10;;;10.50;99.90;;;;;;5007550;28;20492;-76
2023/11/08 12:19:49;;;;;;;1.80;1.50;;;10.50;99.90;;;;;;4996629;28;20527;-75
2023/11/08 12:22:14;;;;;;;2.50;1.60;;;10.40;99.90;;;;;;5011953;28;20446;-75
2023/11/08 12:24:40;;;;;;;1.70;1.60;;;10.40;99.90;;;;;;4999440;28;20942;-74
2023/11/08 12:27:06;;;;;;;2.23;1.60;;;10.40;99.90;;;;;;4995414;28;20225;-75
2023/11/08 12:29:32;;;;;;;2.83;1.37;;;10.40;99.90;;;;;;5007156;28;20240;-75
2023/11/08 12:32:01;;;;;;;4.17;1.30;;;10.40;99.90;;;;;;5002645;28;20464;-75
2023/11/08 12:34:27;;;;;;;5.17;1.93;;;10.40;99.90;;;;;;5005660;28;20710;-75
2023/11/08 12:36:54;;;;;;;2.10;1.50;;;10.40;99.90;;;;;;5016316;28;20517;-74
2023/11/08 12:39:25;;;;;;;2.80;2.23;;;10.50;99.90;;;;;;5006345;28;20221;-75
2023/11/08 12:41:54;;;;;;;3.67;1.20;;;10.50;99.90;;;;;;4998294;28;20962;-75
2023/11/08 12:44:21;;;;;;;7.33;1.50;;;10.40;99.90;;;;;;5015103;28;20476;-76
2023/11/08 12:46:59;;;;;;;3.00;1.40;;;10.50;99.90;;;;;;5017220;28;20479;-75
2023/11/08 12:49:32;;;;;;;1.90;1.80;;;10.50;99.90;;;;;;5014709;28;20483;-75
2023/11/08 12:52:10;;;;;;;1.27;1.10;;;10.50;99.90;;;;;;5012621;28;20453;-75
2023/11/08 12:54:36;;;;;;;3.27;1.57;;;10.50;99.90;;;;;;5018701;28;20467;-74